Time;durP1;ratioP1;P1;durP2;ratioP2;P2;SDS_P1;SDS_P2;PMS_P1;PMS_P2;Temp;Humidity;BMP_temperature;BMP_pressure;BME280_temperature;BME280_humidity;BME280_pressure;Samples;Min_cycle;Max_cycle;Signal;HPM_P1;HPM_P2
2022/12/29 00:06:54;;;;;;;7.97;4.60;;;;;;;;;;21263697;27;20059;-63
2022/12/29 00:16:55;;;;;;;8.13;4.32;;;;;;;;;;21263389;27;20454;-64
2022/12/29 00:47:49;;;;;;;8.95;4.63;;;;;;;;;;21260485;27;20051;-62
2022/12/29 00:57:51;;;;;;;9.43;4.13;;;;;;;;;;21259593;27;20043;-62
2022/12/29 01:07:53;;;;;;;12.52;4.40;;;;;;;;;;21258632;27;20051;-65
2022/12/29 01:17:55;;;;;;;14.77;6.20;;;;;;;;;;21258517;27;20043;-64
2022/12/29 01:27:57;;;;;;;13.80;6.90;;;;;;;;;;21257116;27;20146;-63
2022/12/29 01:38:00;;;;;;;15.05;8.00;;;;;;;;;;21255552;27;20084;-64
2022/12/29 01:48:04;;;;;;;19.60;9.68;;;;;;;;;;21254254;27;20043;-63
2022/12/29 01:58:07;;;;;;;13.98;9.05;;;;;;;;;;21254430;27;20130;-61
2022/12/29 02:08:10;;;;;;;16.42;9.85;;;;;;;;;;21234275;27;20087;-64
2022/12/29 02:18:26;;;;;;;17.40;11.18;;;;;;;;;;21253158;27;20121;-64
2022/12/29 02:28:49;;;;;;;18.80;11.52;;;;;;;;;;21252488;27;20063;-63
2022/12/29 02:38:54;;;;;;;15.32;9.95;;;;;;;;;;21252137;27;20061;-61
2022/12/29 02:49:20;;;;;;;15.05;9.95;;;;;;;;;;21250476;27;20505;-61
2022/12/29 02:59:25;;;;;;;15.57;9.63;;;;;;;;;;21232181;27;20092;-62
2022/12/29 03:09:37;;;;;;;14.18;8.07;;;;;;;;;;21248988;27;20050;-62
2022/12/29 03:19:49;;;;;;;17.20;8.65;;;10.70;76.30;;;;;;21230409;27;20051;-60
2022/12/29 03:29:56;;;;;;;13.32;5.80;;;10.60;77.10;;;;;;21248717;27;20043;-60
2022/12/29 03:40:00;;;;;;;10.65;5.80;;;10.70;76.80;;;;;;21248040;28;20050;-61
2022/12/29 03:50:03;;;;;;;20.42;6.72;;;10.80;76.50;;;;;;21247612;28;20519;-61
2022/12/29 04:00:06;;;;;;;15.75;6.85;;;10.70;76.40;;;;;;21247318;28;20495;-61
2022/12/29 04:10:08;;;;;;;11.60;6.88;;;10.80;76.20;;;;;;21247021;28;20047;-63
2022/12/29 04:30:33;;;;;;;12.95;8.25;;;10.70;76.50;;;;;;21251601;27;20055;-62
2022/12/29 04:40:37;;;;;;;17.95;9.52;;;10.70;76.30;;;;;;21242236;27;20102;-62
2022/12/29 04:50:53;;;;;;;15.15;9.52;;;10.70;76.10;;;;;;21244119;27;20054;-62
2022/12/29 05:00:55;;;;;;;12.75;6.57;;;10.70;76.00;;;;;;21258651;27;20384;-62
2022/12/29 05:11:16;;;;;;;10.90;6.10;;;10.70;75.70;;;;;;21259002;27;20070;-63
2022/12/29 05:21:37;;;;;;;10.70;4.38;;;10.80;75.30;;;;;;21243273;27;20441;-62
2022/12/29 05:31:54;;;;;;;11.93;5.75;;;10.80;75.00;;;;;;21257255;27;20380;-62
2022/12/29 05:41:57;;;;;;;16.05;8.35;;;10.70;75.40;;;;;;21254671;27;20054;-62
2022/12/29 05:51:58;;;;;;;10.27;6.30;;;10.70;74.90;;;;;;21254527;27;20087;-64
2022/12/29 06:02:00;;;;;;;19.15;5.53;;;10.70;74.80;;;;;;21255382;27;20561;-65
2022/12/29 06:12:02;;;;;;;11.32;4.82;;;10.80;74.60;;;;;;21253415;27;20043;-66
2022/12/29 06:22:04;;;;;;;9.15;5.18;;;10.80;74.30;;;;;;21252537;27;20047;-62
2022/12/29 06:32:07;;;;;;;9.05;5.15;;;10.90;74.40;;;;;;21251881;27;20051;-63
2022/12/29 06:42:09;;;;;;;13.23;5.30;;;10.80;74.20;;;;;;21251299;27;20391;-65
2022/12/29 06:52:12;;;;;;;12.20;6.13;;;10.90;74.10;;;;;;21249531;27;20051;-65
2022/12/29 07:02:19;;;;;;;13.05;8.60;;;11.00;74.00;;;;;;21250222;27;20535;-65
2022/12/29 07:12:20;;;;;;;12.73;6.38;;;10.80;74.00;;;;;;21248631;27;20635;-65
2022/12/29 07:22:22;;;;;;;15.38;7.85;;;10.80;73.70;;;;;;21248692;27;20139;-64
2022/12/29 07:32:24;;;;;;;13.07;7.68;;;10.70;73.60;;;;;;21248348;27;20051;-65
2022/12/29 07:42:26;;;;;;;20.00;8.48;;;10.70;73.70;;;;;;21247889;28;20384;-64
2022/12/29 07:52:28;;;;;;;13.48;6.82;;;10.50;73.80;;;;;;21247765;28;20051;-65
2022/12/29 08:02:29;;;;;;;15.27;7.15;;;10.60;73.70;;;;;;21247397;27;20049;-63
2022/12/29 08:12:31;;;;;;;14.13;7.82;;;10.60;74.00;;;;;;21263583;27;20057;-60
2022/12/29 08:22:32;;;;;;;22.20;9.77;;;10.60;73.90;;;;;;21263285;27;20047;-63
2022/12/29 08:32:34;;;;;;;10.05;4.75;;;10.60;73.80;;;;;;21261019;27;20174;-62
2022/12/29 08:42:36;;;;;;;10.80;4.57;;;10.70;74.30;;;;;;21259892;27;20092;-63
2022/12/29 08:52:38;;;;;;;11.48;5.97;;;10.90;74.60;;;;;;21259000;27;20056;-61
2022/12/29 09:02:40;;;;;;;11.65;5.43;;;11.00;75.20;;;;;;21258969;27;20381;-66
2022/12/29 09:12:41;;;;;;;11.10;5.03;;;11.10;75.50;;;;;;21258450;27;20054;-62
2022/12/29 09:22:44;;;;;;;9.18;3.05;;;11.20;76.00;;;;;;21257720;27;20506;-66
2022/12/29 09:32:45;;;;;;;4.78;2.33;;;11.30;77.40;;;;;;21256960;27;20098;-62
2022/12/29 09:43:12;;;;;;;4.25;2.40;;;11.50;78.70;;;;;;21255043;27;20100;-61
2022/12/29 09:53:35;;;;;;;6.57;2.90;;;11.70;79.00;;;;;;21255267;27;20103;-62
2022/12/29 10:03:53;;;;;;;7.25;2.72;;;11.70;79.20;;;;;;21254352;27;20399;-62
2022/12/29 10:14:33;;;;;;;11.57;4.65;;;11.80;79.40;;;;;;21253848;27;20134;-61
2022/12/29 10:24:39;;;;;;;6.18;2.60;;;12.00;79.20;;;;;;21252780;27;20047;-64
2022/12/29 10:34:54;;;;;;;7.95;2.60;;;12.00;79.40;;;;;;21251967;27;20069;-66
2022/12/29 10:44:57;;;;;;;5.78;2.17;;;12.10;79.00;;;;;;21251582;27;20055;-66
2022/12/29 10:55:16;;;;;;;8.38;2.42;;;12.30;77.60;;;;;;21249596;27;20138;-62
2022/12/29 11:05:36;;;;;;;6.45;2.90;;;12.60;75.60;;;;;;21296375;27;20074;-62
2022/12/29 11:15:49;;;;;;;8.40;2.97;;;12.70;75.40;;;;;;21334407;27;20053;-60
2022/12/29 11:26:09;;;;;;;8.15;2.15;;;12.70;74.30;;;;;;21334371;27;20050;-61
2022/12/29 11:36:19;;;;;;;6.82;3.00;;;12.70;74.30;;;;;;21332759;27;20161;-63
2022/12/29 11:46:32;;;;;;;6.20;1.98;;;12.70;75.20;;;;;;21350151;27;20088;-65
2022/12/29 11:56:41;;;;;;;8.45;2.65;;;13.00;74.30;;;;;;21349895;27;20050;-64
2022/12/29 12:06:52;;;;;;;4.95;2.20;;;13.00;74.00;;;;;;21349526;27;20054;-62
2022/12/29 12:17:03;;;;;;;4.65;1.92;;;13.00;74.70;;;;;;21349809;27;20508;-64
2022/12/29 12:27:11;;;;;;;6.95;2.30;;;13.10;74.40;;;;;;21349658;27;20039;-64
2022/12/29 12:37:27;;;;;;;8.93;2.05;;;13.10;74.80;;;;;;21251326;27;20053;-64
2022/12/29 12:47:29;;;;;;;5.32;2.03;;;13.90;72.30;;;;;;21285068;27;20115;-66
2022/12/29 12:57:33;;;;;;;4.18;1.90;;;13.60;73.70;;;;;;21280006;27;20093;-68
2022/12/29 13:07:59;;;;;;;2.43;1.40;;;13.30;74.40;;;;;;21258807;27;20055;-65
2022/12/29 13:18:11;;;;;;;8.35;4.28;;;13.40;74.90;;;;;;21257130;27;20230;-68
2022/12/29 13:28:24;;;;;;;3.08;2.00;;;13.30;75.10;;;;;;21256711;27;20051;-65
2022/12/29 13:38:43;;;;;;;5.57;2.40;;;13.40;75.20;;;;;;21256315;27;20104;-66
2022/12/29 13:49:18;;;;;;;3.92;1.90;;;13.40;75.20;;;;;;21255017;27;20206;-66
2022/12/29 13:59:41;;;;;;;2.40;1.30;;;13.60;74.90;;;;;;20827443;28;20056;-68
2022/12/29 14:09:51;;;;;;;5.18;1.92;;;13.60;74.80;;;;;;20746059;28;20871;-66
2022/12/29 14:19:53;;;;;;;2.08;1.40;;;13.50;75.60;;;;;;20743265;28;20076;-65
2022/12/29 14:29:55;;;;;;;4.05;1.65;;;13.50;76.00;;;;;;20850549;28;20058;-63
2022/12/29 14:40:19;;;;;;;3.45;1.40;;;13.50;76.40;;;;;;21165143;28;20118;-65
2022/12/29 14:50:22;;;;;;;3.00;1.40;;;13.70;76.10;;;;;;21130100;27;20052;-62
2022/12/29 15:00:32;;;;;;;3.75;1.63;;;13.60;76.40;;;;;;21167298;27;20070;-62
2022/12/29 15:10:41;;;;;;;3.95;1.67;;;13.60;76.50;;;;;;21096101;28;20134;-60
2022/12/29 15:20:43;;;;;;;3.28;1.80;;;13.60;76.70;;;;;;21152853;27;20050;-62
2022/12/29 15:31:03;;;;;;;3.22;1.52;;;13.70;76.50;;;;;;21154321;28;20399;-59
2022/12/29 15:41:26;;;;;;;2.78;1.17;;;13.70;76.80;;;;;;21152761;28;20052;-58
2022/12/29 15:51:35;;;;;;;3.55;1.80;;;13.60;77.70;;;;;;21152634;28;20048;-62
2022/12/29 16:01:37;;;;;;;4.57;1.55;;;13.70;77.60;;;;;;21151411;27;20149;-61
2022/12/29 16:11:46;;;;;;;4.82;2.40;;;13.60;77.90;;;;;;21156032;28;20043;-64
2022/12/29 16:21:48;;;;;;;3.40;1.90;;;13.60;77.80;;;;;;21153289;28;20051;-63
2022/12/29 16:32:05;;;;;;;4.50;2.35;;;13.60;78.00;;;;;;21172977;27;20036;-62
2022/12/29 16:42:38;;;;;;;3.78;2.22;;;13.60;77.70;;;;;;21169980;28;20043;-59
2022/12/29 16:52:40;;;;;;;4.05;1.92;;;13.60;77.90;;;;;;21167962;28;20426;-61
2022/12/29 17:02:44;;;;;;;2.58;1.48;;;13.40;78.80;;;;;;21202341;27;20043;-62
2022/12/29 17:12:48;;;;;;;3.90;1.40;;;13.40;79.00;;;;;;21309761;27;20082;-58
2022/12/29 17:22:53;;;;;;;2.77;1.87;;;13.30;80.20;;;;;;21281719;27;20106;-60
2022/12/29 17:33:05;;;;;;;4.65;2.42;;;13.30;81.60;;;;;;21268488;27;20131;-64
2022/12/29 17:43:11;;;;;;;4.57;2.70;;;13.20;82.20;;;;;;21288912;27;20061;-59
2022/12/29 17:53:18;;;;;;;4.88;2.63;;;13.20;82.10;;;;;;21266928;27;20048;-63
2022/12/29 18:03:25;;;;;;;3.85;2.80;;;;;;;;;;21183568;27;20499;-62
2022/12/29 18:13:30;;;;;;;3.97;2.20;;;13.30;81.70;;;;;;21251340;27;20050;-63
2022/12/29 18:23:35;;;;;;;6.43;2.60;;;13.20;81.60;;;;;;21251039;27;20047;-60
2022/12/29 18:33:37;;;;;;;5.97;2.60;;;13.20;81.00;;;;;;21250932;27;20051;-62
2022/12/29 18:43:39;;;;;;;6.78;3.22;;;13.20;80.60;;;;;;21249622;27;20050;-62
2022/12/29 18:53:41;;;;;;;5.57;3.20;;;13.20;80.60;;;;;;21249905;27;20039;-61
2022/12/29 19:03:42;;;;;;;4.57;2.20;;;13.20;80.90;;;;;;21248919;27;20047;-63
2022/12/29 19:13:44;;;;;;;4.78;1.95;;;13.20;79.60;;;;;;21247307;27;20055;-60
2022/12/29 19:23:45;;;;;;;3.28;1.50;;;13.20;78.40;;;;;;21248373;27;20497;-63
2022/12/29 19:33:47;;;;;;;5.93;2.25;;;13.20;77.10;;;;;;21247359;27;20143;-61
2022/12/29 19:43:49;;;;;;;5.03;2.83;;;13.20;76.80;;;;;;21247300;28;20108;-61
2022/12/29 19:53:52;;;;;;;3.47;2.28;;;13.20;76.90;;;;;;21247083;28;20058;-62
2022/12/29 20:03:54;;;;;;;3.97;1.80;;;13.20;76.60;;;;;;21255765;27;20051;-65
2022/12/29 20:13:55;;;;;;;4.63;2.08;;;13.20;77.10;;;;;;21260924;27;20047;-61
2022/12/29 20:23:57;;;;;;;6.53;3.00;;;13.00;79.40;;;;;;21260703;27;20497;-62
2022/12/29 20:33:58;;;;;;;6.57;2.63;;;12.90;79.90;;;;;;21259709;27;20043;-60
2022/12/29 20:44:00;;;;;;;9.35;3.00;;;12.80;79.90;;;;;;21258584;27;20074;-60
2022/12/29 20:54:02;;;;;;;8.88;2.65;;;13.00;79.10;;;;;;21258327;27;20145;-63
2022/12/29 21:04:04;;;;;;;9.18;4.15;;;12.90;79.10;;;;;;21257020;27;20516;-62
2022/12/29 21:14:06;;;;;;;7.03;3.63;;;12.80;79.40;;;;;;21256981;27;20483;-63
2022/12/29 21:24:08;;;;;;;5.40;2.45;;;12.90;78.80;;;;;;21257395;27;20039;-62
2022/12/29 21:34:09;;;;;;;9.55;3.28;;;12.80;78.90;;;;;;21237281;27;20135;-61
2022/12/29 22:15:13;;;;;;;20.02;3.75;;;12.90;78.30;;;;;;21253766;27;20054;-63
2022/12/29 22:25:16;;;;;;;11.77;2.60;;;12.90;78.60;;;;;;21253362;27;20445;-64
2022/12/29 22:35:18;;;;;;;9.50;3.88;;;12.80;78.50;;;;;;21252484;27;20488;-64
2022/12/29 22:45:20;;;;;;;11.65;3.70;;;12.80;78.30;;;;;;21250922;27;20047;-62
2022/12/29 22:55:23;;;;;;;6.85;2.85;;;12.80;78.30;;;;;;21251074;27;20119;-61
2022/12/29 23:05:25;;;;;;;14.02;4.03;;;12.80;78.20;;;;;;21249562;27;20051;-63
2022/12/29 23:15:27;;;;;;;13.65;3.42;;;12.80;77.50;;;;;;21248860;27;20088;-64
2022/12/29 23:25:30;;;;;;;16.60;3.80;;;12.80;77.30;;;;;;21249136;27;20054;-63
2022/12/29 23:35:32;;;;;;;14.38;3.67;;;12.80;76.60;;;;;;21247392;27;20486;-62
2022/12/29 23:45:36;;;;;;;10.05;4.28;;;12.80;76.10;;;;;;21247531;28;20047;-64
2022/12/29 23:55:41;;;;;;;14.65;4.90;;;12.70;75.90;;;;;;21247234;28;20051;-61
